Bennetts Bay, Louisiana
Current Conditions -  °F | °C
As of 5:53 PM on Monday 20 Oct 2014 (Local Time) from KAEX Reporting Station
Clear Clear  
Wind Chill: 74°   Ceiling: Unl
Heat Index: 74°   Visibility: 10mi
Dew Point: 53°   Wind: 3mph
Humidity: 48%   Direction: 20°NNE
Pressure: 30"   Gusts: NA
Location:  31.0356°N, 92.5053°W
Report Text: KAEX 202253Z 02003KT 10SM CLR 23/12 A3000 RMK AO2 SLP163 T02330117
Loading
Personal Weather Stations






























Interactive Weather Map
Tropical Storm Tracking
New forecast layout! Learn more

10-Day Weather Forecast

Advertisements
Track Severe Weather on mobile